createdAt,value
2023-06-19T00:01:55.155Z,49.28
2023-06-19T00:04:23.167Z,49.18
2023-06-19T00:06:51.148Z,50.01
2023-06-19T00:09:19.351Z,50.16
2023-06-19T00:11:47.356Z,50.52
2023-06-19T00:14:15.224Z,50.37
2023-06-19T00:16:44.474Z,50.48
2023-06-19T00:19:12.842Z,51.26
2023-06-19T00:21:40.887Z,51.57
2023-06-19T00:24:08.845Z,51.79
2023-06-19T00:26:36.843Z,52.27
2023-06-19T00:29:04.701Z,52.13
2023-06-19T00:31:32.483Z,52.12
2023-06-19T00:34:01.742Z,52.56
2023-06-19T00:36:30.220Z,52.15
2023-06-19T00:38:58.155Z,52.28
2023-06-19T00:41:28.726Z,52.70
2023-06-19T00:43:56.671Z,53.02
2023-06-19T00:46:24.866Z,52.63
2023-06-19T00:48:52.853Z,52.91
2023-06-19T00:51:22.396Z,53.19
2023-06-19T00:53:50.362Z,53.41
2023-06-19T00:56:19.317Z,52.90
2023-06-19T00:58:47.189Z,53.74
2023-06-19T01:01:16.216Z,53.73
2023-06-19T01:03:44.290Z,52.95
2023-06-19T01:06:16.455Z,52.35
2023-06-19T01:08:53.214Z,50.95
2023-06-19T01:11:27.490Z,50.65
2023-06-19T01:14:00.902Z,50.15
2023-06-19T01:16:31.080Z,50.00
2023-06-19T01:19:00.085Z,50.14
2023-06-19T01:21:28.043Z,49.92
2023-06-19T01:23:58.659Z,50.07
2023-06-19T01:26:28.716Z,50.19
2023-06-19T01:28:57.918Z,50.99
2023-06-19T01:31:30.915Z,51.03
2023-06-19T01:34:01.050Z,51.72
2023-06-19T01:36:29.879Z,51.84
2023-06-19T01:39:00.596Z,52.18
2023-06-19T01:41:30.067Z,52.85
2023-06-19T01:43:59.873Z,53.78
2023-06-19T01:46:28.346Z,53.71
2023-06-19T01:48:56.970Z,54.02
2023-06-19T01:51:24.889Z,54.58
2023-06-19T01:53:52.775Z,54.42
2023-06-19T01:56:22.061Z,55.15
2023-06-19T01:58:52.726Z,54.92
2023-06-19T02:01:20.804Z,55.63
2023-06-19T02:03:48.817Z,55.67
2023-06-19T02:06:16.794Z,55.59
2023-06-19T02:08:44.761Z,56.00
2023-06-19T02:11:13.328Z,55.62
2023-06-19T02:13:43.523Z,55.72
2023-06-19T02:16:11.492Z,55.71
2023-06-19T02:18:39.341Z,56.00
2023-06-19T02:21:07.246Z,56.34
2023-06-19T02:23:36.531Z,56.15
2023-06-19T02:26:04.367Z,56.33
2023-06-19T02:28:32.258Z,56.60
2023-06-19T02:31:01.550Z,57.12
2023-06-19T02:33:29.979Z,57.13
2023-06-19T02:36:00.259Z,57.09
2023-06-19T02:38:30.903Z,56.85
2023-06-19T02:41:01.553Z,56.84
2023-06-19T02:43:29.525Z,56.70
2023-06-19T02:45:57.519Z,56.60
2023-06-19T02:48:26.899Z,56.09
2023-06-19T02:50:55.261Z,56.53
2023-06-19T02:53:23.158Z,56.80
2023-06-19T02:55:51.097Z,56.42
2023-06-19T02:58:19.187Z,56.41
2023-06-19T03:00:48.259Z,56.30
2023-06-19T03:03:18.067Z,56.69
2023-06-19T03:05:47.383Z,56.86
2023-06-19T03:08:15.298Z,57.10
2023-06-19T03:10:43.482Z,57.81
2023-06-19T03:13:11.524Z,57.95
2023-06-19T03:15:40.287Z,57.17
2023-06-19T03:18:10.523Z,57.43
2023-06-19T03:20:40.153Z,57.87
2023-06-19T03:23:09.468Z,58.37
2023-06-19T03:25:38.029Z,60.08
2023-06-19T03:28:06.510Z,60.80
2023-06-19T03:30:35.588Z,62.34
2023-06-19T03:33:03.647Z,63.99
2023-06-19T03:35:47.040Z,63.83
2023-06-19T03:38:42.377Z,63.62
2023-06-19T03:41:13.478Z,63.10
2023-06-19T03:43:41.604Z,63.89
2023-06-19T03:46:09.982Z,64.80
2023-06-19T03:48:37.922Z,64.47
2023-06-19T03:51:05.887Z,65.00
2023-06-19T03:53:34.273Z,65.35
2023-06-19T03:56:03.604Z,66.10
2023-06-19T03:58:31.623Z,66.66
2023-06-19T04:00:59.489Z,68.52
2023-06-19T04:03:27.471Z,68.36
2023-06-19T04:05:55.393Z,69.03
2023-06-19T04:08:23.264Z,69.26
2023-06-19T04:10:51.099Z,70.67
2023-06-19T04:13:20.370Z,71.81
2023-06-19T04:15:51.274Z,71.33
2023-06-19T04:18:19.467Z,71.87
2023-06-19T04:20:47.390Z,70.82
2023-06-19T04:23:15.235Z,71.44
2023-06-19T04:25:43.432Z,71.76
2023-06-19T04:28:13.359Z,71.56
2023-06-19T04:30:43.958Z,71.55
2023-06-19T04:33:12.330Z,71.07
2023-06-19T04:35:41.978Z,71.54
2023-06-19T04:38:10.501Z,70.83
2023-06-19T04:40:38.454Z,71.60
2023-06-19T04:43:06.888Z,72.79
2023-06-19T04:45:34.942Z,73.17
2023-06-19T04:48:04.516Z,74.09
2023-06-19T04:50:32.582Z,74.77
2023-06-19T04:53:00.516Z,74.14
2023-06-19T04:55:28.404Z,73.49
2023-06-19T04:57:56.763Z,74.62
2023-06-19T05:00:25.515Z,74.53
2023-06-19T05:02:53.784Z,73.41
2023-06-19T05:05:24.645Z,74.42
2023-06-19T05:07:52.745Z,72.42
2023-06-19T05:10:20.652Z,71.36
2023-06-19T05:12:48.525Z,71.68
2023-06-19T05:15:16.565Z,72.53
2023-06-19T05:17:47.495Z,72.69
2023-06-19T05:20:15.758Z,73.53
2023-06-19T05:22:45.000Z,71.82
2023-06-19T05:25:13.017Z,72.74
2023-06-19T05:27:40.991Z,72.78
2023-06-19T05:30:10.098Z,72.81
2023-06-19T05:32:38.064Z,73.00
2023-06-19T05:35:06.787Z,73.01
2023-06-19T05:37:34.920Z,73.08
2023-06-19T05:40:04.897Z,72.75
2023-06-19T05:42:32.802Z,72.55
2023-06-19T05:45:00.688Z,71.50
2023-06-19T05:47:28.772Z,71.37
2023-06-19T05:49:56.626Z,70.84
2023-06-19T05:52:24.727Z,70.87
2023-06-19T05:54:53.279Z,70.35
2023-06-19T05:57:22.916Z,70.32
2023-06-19T05:59:51.103Z,69.32
2023-06-19T06:02:20.200Z,68.90
2023-06-19T06:04:48.317Z,69.53
2023-06-19T06:07:16.296Z,69.07
2023-06-19T06:09:44.202Z,68.27
2023-06-19T06:12:12.792Z,68.13
2023-06-19T06:14:42.531Z,67.99
2023-06-19T06:17:11.149Z,66.96
2023-06-19T06:19:39.918Z,67.19
2023-06-19T06:22:08.164Z,66.89
2023-06-19T06:24:36.044Z,65.82
2023-06-19T06:27:04.066Z,65.11
2023-06-19T06:29:31.904Z,65.35
2023-06-19T06:32:07.564Z,64.58
2023-06-19T06:34:35.875Z,65.27
2023-06-19T06:37:06.266Z,64.98
2023-06-19T06:39:34.787Z,65.66
2023-06-19T06:42:02.686Z,64.56
2023-06-19T06:44:30.602Z,65.36
2023-06-19T06:46:58.686Z,64.80
2023-06-19T06:49:27.890Z,64.75
2023-06-19T06:51:58.134Z,63.39
2023-06-19T06:54:26.325Z,62.96
2023-06-19T06:56:57.409Z,62.39
2023-06-19T06:59:25.768Z,62.90
2023-06-19T07:01:53.597Z,61.98
2023-06-19T07:04:21.461Z,61.95
2023-06-19T07:06:50.783Z,61.38
2023-06-19T07:09:19.153Z,61.46
2023-06-19T07:11:47.080Z,61.56
2023-06-19T07:14:14.969Z,61.85
2023-06-19T07:16:42.844Z,61.13
2023-06-19T07:19:10.749Z,61.07
2023-06-19T07:21:39.583Z,61.13
2023-06-19T07:24:09.358Z,61.57
2023-06-19T07:26:37.353Z,61.29
2023-06-19T07:29:05.215Z,61.15
2023-06-19T07:31:33.397Z,61.42
2023-06-19T07:34:01.227Z,60.83
2023-06-19T07:36:29.106Z,61.17
2023-06-19T07:38:57.475Z,60.52
2023-06-19T07:41:26.683Z,59.32
2023-06-19T07:43:54.699Z,59.80
2023-06-19T07:46:22.572Z,60.39
2023-06-19T07:48:50.487Z,60.34
2023-06-19T07:51:18.373Z,60.09
2023-06-19T07:53:46.204Z,59.89
2023-06-19T07:56:14.127Z,59.91
2023-06-19T07:58:43.398Z,59.88
2023-06-19T08:01:11.538Z,60.13
2023-06-19T08:03:39.929Z,60.44
2023-06-19T08:06:08.063Z,60.20
2023-06-19T08:08:35.942Z,60.29
2023-06-19T08:11:04.036Z,60.45
2023-06-19T08:13:31.919Z,59.92
2023-06-19T08:16:01.169Z,60.39
2023-06-19T08:18:29.034Z,60.35
2023-06-19T08:20:57.163Z,59.55
2023-06-19T08:23:24.984Z,58.87
2023-06-19T08:25:53.183Z,58.79
2023-06-19T08:28:21.131Z,58.73
2023-06-19T08:30:49.802Z,58.12
2023-06-19T08:33:19.868Z,56.86
2023-06-19T08:35:49.462Z,57.20
2023-06-19T08:38:17.387Z,56.75
2023-06-19T08:40:46.340Z,56.35
2023-06-19T08:43:15.077Z,56.24
2023-06-19T08:45:43.474Z,56.17
2023-06-19T08:48:16.468Z,54.54
2023-06-19T08:50:46.230Z,54.96
2023-06-19T08:53:14.866Z,54.21
2023-06-19T08:55:43.300Z,53.97
2023-06-19T08:58:13.339Z,53.85
2023-06-19T09:00:41.796Z,54.12
2023-06-19T09:03:14.582Z,53.24
2023-06-19T09:05:51.413Z,53.87
2023-06-19T09:08:20.705Z,53.28
2023-06-19T09:11:00.095Z,53.05
2023-06-19T09:13:29.800Z,52.23
2023-06-19T09:16:03.741Z,52.23
2023-06-19T09:18:32.989Z,50.98
2023-06-19T09:21:02.228Z,50.73
2023-06-19T09:23:30.126Z,50.29
2023-06-19T09:26:01.347Z,49.69
2023-06-19T09:28:33.937Z,50.22
2023-06-19T09:31:03.296Z,50.10
2023-06-19T09:33:33.730Z,50.75
2023-06-19T09:36:05.445Z,49.46
2023-06-19T09:38:34.780Z,50.05
2023-06-19T09:41:04.973Z,48.54
2023-06-19T09:43:36.784Z,48.13
2023-06-19T09:46:06.110Z,47.98
2023-06-19T09:48:35.958Z,45.64
2023-06-19T09:51:13.012Z,46.49
2023-06-19T09:53:41.925Z,47.37
2023-06-19T09:56:10.148Z,46.71
2023-06-19T09:58:39.337Z,46.97
2023-06-19T10:01:08.742Z,47.39
2023-06-19T10:03:38.690Z,47.91
2023-06-19T10:06:08.237Z,46.64
2023-06-19T10:08:41.587Z,47.23
2023-06-19T10:11:09.615Z,46.72
2023-06-19T10:13:39.914Z,47.17
2023-06-19T10:16:08.349Z,46.58
2023-06-19T10:18:48.229Z,46.69
2023-06-19T10:21:19.597Z,46.74
2023-06-19T10:23:56.059Z,45.89
2023-06-19T10:26:33.939Z,45.64
2023-06-19T10:29:02.279Z,45.57
2023-06-19T10:31:30.784Z,46.01
2023-06-19T10:33:59.078Z,45.12
2023-06-19T10:36:28.509Z,45.50
2023-06-19T10:38:56.853Z,44.78
2023-06-19T10:41:26.419Z,44.90
2023-06-19T10:43:59.179Z,45.33
2023-06-19T10:46:32.167Z,47.43
2023-06-19T10:49:02.503Z,47.08
2023-06-19T10:51:32.373Z,47.84
2023-06-19T10:54:00.273Z,47.22
2023-06-19T10:56:28.903Z,47.42
2023-06-19T10:59:01.138Z,47.61
2023-06-19T11:01:39.970Z,47.40
2023-06-19T11:04:09.532Z,47.82
2023-06-19T11:06:40.176Z,48.07
2023-06-19T11:09:09.826Z,47.90
2023-06-19T11:14:45.521Z,47.40
2023-06-19T11:17:13.825Z,47.02
2023-06-19T11:19:44.601Z,47.25
2023-06-19T11:22:13.219Z,47.34
2023-06-19T11:24:46.675Z,46.85
2023-06-19T11:27:28.238Z,46.98
2023-06-19T11:30:01.416Z,46.85
2023-06-19T11:32:33.551Z,46.63
2023-06-19T11:35:08.992Z,46.31
2023-06-19T11:37:37.262Z,46.49
2023-06-19T11:40:13.219Z,46.39
2023-06-19T11:42:49.891Z,47.06
2023-06-19T11:45:19.806Z,46.75
2023-06-19T11:47:48.522Z,45.61
2023-06-19T11:50:20.346Z,47.00
2023-06-19T11:52:49.002Z,46.56
2023-06-19T11:55:17.972Z,46.76
2023-06-19T11:57:45.925Z,46.97
2023-06-19T12:00:19.444Z,45.94
2023-06-19T12:02:49.041Z,46.22
2023-06-19T12:05:17.793Z,46.82
2023-06-19T12:07:45.608Z,45.46
2023-06-19T12:10:13.456Z,45.89
2023-06-19T12:12:41.964Z,46.33
2023-06-19T12:15:10.154Z,45.65
2023-06-19T12:17:39.538Z,45.19
2023-06-19T12:20:09.782Z,45.29
2023-06-19T12:22:37.872Z,44.56
2023-06-19T12:25:06.112Z,44.26
2023-06-19T12:27:34.816Z,43.84
2023-06-19T12:30:03.503Z,43.97
2023-06-19T12:32:31.685Z,44.04
2023-06-19T12:35:01.007Z,44.48
2023-06-19T12:37:29.196Z,44.42
2023-06-19T12:39:57.031Z,43.89
2023-06-19T12:42:24.907Z,43.24
2023-06-19T12:44:52.700Z,43.28
2023-06-19T12:47:21.889Z,43.49
2023-06-19T12:49:49.943Z,44.25
2023-06-19T12:52:19.168Z,44.26
2023-06-19T12:54:47.087Z,43.88
2023-06-19T12:57:14.928Z,44.14
2023-06-19T12:59:42.808Z,44.77
2023-06-19T13:02:12.733Z,44.85
2023-06-19T13:04:43.242Z,45.27
2023-06-19T13:07:11.102Z,45.72
2023-06-19T13:09:40.478Z,45.45
2023-06-19T13:12:09.325Z,45.84
2023-06-19T13:14:38.547Z,45.67
2023-06-19T13:17:07.277Z,45.79
2023-06-19T13:19:35.968Z,46.37
2023-06-19T13:22:03.980Z,45.56
2023-06-19T13:24:31.896Z,45.59
2023-06-19T13:27:01.349Z,44.06
2023-06-19T13:29:29.681Z,44.16
2023-06-19T13:31:57.654Z,43.90
2023-06-19T13:34:25.810Z,44.25
2023-06-19T13:36:53.696Z,43.40
2023-06-19T13:39:21.627Z,43.80
2023-06-19T13:41:49.857Z,42.58
2023-06-19T13:44:20.037Z,42.48
2023-06-19T13:46:48.170Z,42.12
2023-06-19T13:49:16.105Z,42.57
2023-06-19T13:51:45.337Z,43.13
2023-06-19T13:54:14.199Z,43.21
2023-06-19T13:56:43.489Z,43.85
2023-06-19T13:59:11.611Z,43.55
2023-06-19T14:01:42.278Z,42.61
2023-06-19T14:04:10.744Z,41.96
2023-06-19T14:06:39.586Z,41.32
2023-06-19T14:09:07.454Z,40.79
2023-06-19T14:11:35.260Z,40.47
2023-06-19T14:14:03.461Z,40.60
2023-06-19T14:16:31.379Z,41.06
2023-06-19T14:19:00.662Z,40.40
2023-06-19T14:21:28.467Z,40.32
2023-06-19T14:23:56.348Z,40.49
2023-06-19T14:26:24.185Z,39.42
2023-06-19T14:28:56.274Z,39.86
2023-06-19T14:31:24.764Z,39.88
2023-06-19T14:33:52.848Z,39.80
2023-06-19T14:36:22.336Z,39.88
2023-06-19T14:38:50.722Z,39.86
2023-06-19T14:41:18.654Z,39.13
2023-06-19T14:43:46.970Z,38.63
2023-06-19T14:46:25.919Z,39.20
2023-06-19T14:49:02.952Z,40.30
2023-06-19T14:51:32.260Z,39.11
2023-06-19T14:54:00.124Z,39.12
2023-06-19T14:56:27.984Z,38.33
2023-06-19T14:58:55.952Z,38.86
2023-06-19T15:01:24.155Z,38.32
2023-06-19T15:03:52.217Z,38.49
2023-06-19T15:06:20.134Z,38.31
2023-06-19T15:08:49.309Z,38.23
2023-06-19T15:11:17.152Z,37.72
2023-06-19T15:13:45.041Z,37.86
2023-06-19T15:16:13.362Z,37.77
2023-06-19T15:18:41.694Z,37.72
2023-06-19T15:21:09.590Z,38.03
2023-06-19T15:23:37.521Z,37.77
2023-06-19T15:26:07.418Z,37.88
2023-06-19T15:28:36.756Z,38.35
2023-06-19T15:31:04.974Z,39.11
2023-06-19T15:33:32.788Z,38.59
2023-06-19T15:36:00.615Z,39.16
2023-06-19T15:38:29.344Z,39.49
2023-06-19T15:40:57.408Z,38.83
2023-06-19T15:43:29.747Z,36.69
2023-06-19T15:45:57.969Z,36.67
2023-06-19T15:48:26.163Z,34.88
2023-06-19T15:50:53.956Z,34.18
2023-06-19T15:53:21.758Z,34.31
2023-06-19T15:55:49.610Z,34.80
2023-06-19T15:58:17.388Z,37.18
2023-06-19T16:00:49.097Z,38.33
2023-06-19T16:03:17.121Z,38.53
2023-06-19T16:06:01.765Z,38.83
2023-06-19T16:08:34.640Z,39.49
2023-06-19T16:11:04.324Z,40.25
2023-06-19T16:13:32.336Z,41.04
2023-06-19T16:16:01.711Z,41.27
2023-06-19T16:18:29.738Z,42.36
2023-06-19T16:20:57.539Z,42.25
2023-06-19T16:23:25.904Z,43.25
2023-06-19T16:25:53.787Z,43.92
2023-06-19T16:28:21.662Z,44.41
2023-06-19T16:30:49.662Z,44.82
2023-06-19T16:33:19.046Z,45.35
2023-06-19T16:35:46.909Z,45.55
2023-06-19T16:38:14.763Z,45.50
2023-06-19T16:40:42.611Z,46.15
2023-06-19T16:43:12.000Z,46.84
2023-06-19T16:45:39.965Z,47.14
2023-06-19T16:48:07.820Z,48.01
2023-06-19T16:50:37.214Z,49.23
2023-06-19T16:53:07.115Z,49.13
2023-06-19T16:55:35.059Z,49.39
2023-06-19T16:58:02.935Z,49.36
2023-06-19T17:00:30.749Z,49.04
2023-06-19T17:02:59.802Z,48.88
2023-06-19T17:05:27.887Z,48.88
2023-06-19T17:07:57.311Z,48.36
2023-06-19T17:10:25.756Z,48.59
2023-06-19T17:12:54.052Z,49.23
2023-06-19T17:15:21.995Z,48.98
2023-06-19T17:17:49.915Z,49.23
2023-06-19T17:20:17.868Z,49.84
2023-06-19T17:22:45.753Z,49.74
2023-06-19T17:25:15.227Z,48.97
2023-06-19T17:27:43.826Z,49.54
2023-06-19T17:30:13.299Z,49.27
2023-06-19T17:32:45.043Z,49.78
2023-06-19T17:35:13.248Z,49.43
2023-06-19T17:37:42.497Z,49.21
2023-06-19T17:40:13.753Z,49.46
2023-06-19T17:42:43.335Z,49.46
2023-06-19T17:45:12.348Z,49.19
2023-06-19T17:47:40.599Z,49.39
2023-06-19T17:50:09.518Z,49.44
2023-06-19T17:52:38.285Z,49.45
2023-06-19T17:55:06.980Z,49.72
2023-06-19T17:57:34.990Z,49.47
2023-06-19T18:00:05.898Z,49.32
2023-06-19T18:02:40.250Z,49.41
2023-06-19T18:05:08.819Z,49.08
2023-06-19T18:07:36.661Z,49.77
2023-06-19T18:10:05.016Z,50.07
2023-06-19T18:12:33.013Z,50.04
2023-06-19T18:15:00.959Z,50.33
2023-06-19T18:17:30.445Z,50.81
2023-06-19T18:19:59.983Z,51.34
2023-06-19T18:22:27.976Z,51.92
2023-06-19T18:24:55.975Z,51.59
2023-06-19T18:27:23.851Z,51.64
2023-06-19T18:29:51.674Z,52.55
2023-06-19T18:32:19.509Z,52.47
2023-06-19T18:34:48.801Z,52.47
2023-06-19T18:37:16.707Z,52.71
2023-06-19T18:39:44.545Z,52.76
2023-06-19T18:42:12.719Z,53.24
2023-06-19T18:44:40.553Z,53.75
2023-06-19T18:47:08.815Z,53.84
2023-06-19T18:49:36.801Z,53.98
2023-06-19T18:52:07.088Z,54.33
2023-06-19T18:54:35.043Z,53.99
2023-06-19T18:57:02.987Z,53.88
2023-06-19T18:59:30.827Z,54.64
2023-06-19T19:01:58.818Z,54.42
2023-06-19T19:04:28.369Z,54.55
2023-06-19T19:06:56.173Z,55.14
2023-06-19T19:09:25.361Z,54.87
2023-06-19T19:11:54.131Z,55.41
2023-06-19T19:14:21.989Z,55.63
2023-06-19T19:16:49.837Z,55.90
2023-06-19T19:19:17.716Z,55.67
2023-06-19T19:21:45.573Z,56.32
2023-06-19T19:24:13.442Z,56.57
2023-06-19T19:26:44.050Z,56.03
2023-06-19T19:29:12.273Z,56.73
2023-06-19T19:31:40.402Z,55.97
2023-06-19T19:34:08.251Z,56.95
2023-06-19T19:36:36.890Z,56.97
2023-06-19T19:39:04.864Z,57.05
2023-06-19T19:41:32.925Z,57.05
2023-06-19T19:44:02.141Z,57.40
2023-06-19T19:46:30.339Z,57.77
2023-06-19T19:48:58.194Z,57.65
2023-06-19T19:51:26.157Z,58.09
2023-06-19T19:53:53.997Z,58.54
2023-06-19T19:56:21.953Z,58.78
2023-06-19T19:58:52.215Z,58.87
2023-06-19T20:01:21.768Z,58.96
2023-06-19T20:03:49.854Z,59.49
2023-06-19T20:06:17.769Z,59.56
2023-06-19T20:08:45.864Z,59.76
2023-06-19T20:11:14.284Z,59.79
2023-06-19T20:13:42.152Z,60.21
2023-06-19T20:16:11.105Z,60.11
2023-06-19T20:18:40.559Z,60.23
2023-06-19T20:21:08.460Z,60.32
2023-06-19T20:23:36.323Z,60.58
2023-06-19T20:26:04.205Z,60.36
2023-06-19T20:28:32.059Z,60.74
2023-06-19T20:30:59.915Z,60.98
2023-06-19T20:33:27.777Z,60.80
2023-06-19T20:35:57.059Z,61.17
2023-06-19T20:38:24.924Z,61.26
2023-06-19T20:40:52.792Z,61.27
2023-06-19T20:43:20.670Z,61.80
2023-06-19T20:45:48.703Z,62.13
2023-06-19T20:48:16.518Z,62.10
2023-06-19T20:50:44.438Z,62.32
2023-06-19T20:53:13.749Z,62.12
2023-06-19T20:55:41.580Z,62.67
2023-06-19T20:58:09.486Z,63.04
2023-06-19T21:00:37.361Z,63.01
2023-06-19T21:03:08.119Z,63.30
2023-06-19T21:05:38.003Z,62.89
2023-06-19T21:08:06.188Z,63.09
2023-06-19T21:10:35.392Z,63.46
2023-06-19T21:13:21.028Z,63.78
2023-06-19T21:15:50.720Z,63.83
2023-06-19T21:18:18.901Z,64.00
2023-06-19T21:20:46.723Z,64.09
2023-06-19T21:23:14.850Z,63.94
2023-06-19T21:25:44.034Z,64.32
2023-06-19T21:28:11.935Z,64.78
2023-06-19T21:30:39.732Z,64.57
2023-06-19T21:33:07.587Z,64.57
2023-06-19T21:35:35.546Z,64.83
2023-06-19T21:38:03.315Z,64.55
2023-06-19T21:40:31.194Z,65.11
2023-06-19T21:43:00.349Z,65.29
2023-06-19T21:45:28.211Z,65.64
2023-06-19T21:47:56.752Z,65.46
2023-06-19T21:50:24.893Z,65.95
2023-06-19T21:52:53.312Z,66.16
2023-06-19T21:55:21.286Z,66.25
2023-06-19T21:57:59.333Z,66.55
2023-06-19T22:00:30.180Z,66.61
2023-06-19T22:02:58.690Z,66.89
2023-06-19T22:05:27.289Z,66.95
2023-06-19T22:07:55.588Z,66.50
2023-06-19T22:10:24.774Z,66.27
2023-06-19T22:12:52.962Z,66.45
2023-06-19T22:15:20.808Z,66.61
2023-06-19T22:17:50.110Z,66.56
2023-06-19T22:20:19.762Z,67.06
2023-06-19T22:22:49.437Z,67.48
2023-06-19T22:25:17.737Z,67.46
2023-06-19T22:27:47.346Z,67.33
2023-06-19T22:30:16.658Z,67.76
2023-06-19T22:32:44.587Z,67.71
2023-06-19T22:35:13.912Z,67.78
2023-06-19T22:37:42.317Z,67.89
2023-06-19T22:40:11.263Z,67.70
2023-06-19T22:42:39.892Z,68.34
2023-06-19T22:45:08.662Z,68.21
2023-06-19T22:47:39.294Z,68.23
2023-06-19T22:50:08.490Z,68.29
2023-06-19T22:52:38.044Z,68.48
2023-06-19T22:55:07.056Z,68.29
2023-06-19T22:57:36.094Z,68.90
2023-06-19T23:00:08.934Z,68.81
2023-06-19T23:02:36.980Z,69.32
2023-06-19T23:05:05.389Z,69.41
2023-06-19T23:07:33.469Z,68.86
2023-06-19T23:10:04.777Z,69.52
2023-06-19T23:12:32.862Z,69.48
2023-06-19T23:15:00.820Z,69.72
2023-06-19T23:17:28.710Z,69.55
2023-06-19T23:19:59.128Z,70.01
2023-06-19T23:22:27.572Z,70.21
2023-06-19T23:24:55.708Z,70.29
2023-06-19T23:27:24.934Z,69.74
2023-06-19T23:29:57.004Z,69.82
2023-06-19T23:32:24.840Z,69.70
2023-06-19T23:34:52.784Z,70.36
2023-06-19T23:37:20.869Z,70.26
2023-06-19T23:39:48.643Z,70.29
2023-06-19T23:42:16.633Z,70.03
2023-06-19T23:44:45.810Z,70.14
2023-06-19T23:47:13.678Z,70.12
2023-06-19T23:49:42.670Z,70.49
2023-06-19T23:52:10.796Z,69.80
2023-06-19T23:54:38.579Z,70.15
2023-06-19T23:57:08.723Z,70.43
2023-06-19T23:59:36.573Z,70.25
